Byron, Nebraska
Current Conditions -  °F | °C
As of 1:55 PM on Monday 22 Dec 2014 (Local Time) from KHJH Reporting Station
Overcast Overcast  
Wind Chill: 41°   Ceiling: 4300
Heat Index: 47°   Visibility: 10mi
Dew Point: 36°   Wind: 14mph
Humidity: 65%   Direction: 320°NW
Pressure: 29.45"   Gusts: 22mph
Location:  40°N, 97.77°W
Report Text: KHJH 221955Z AUTO 32012G19KT 10SM SCT029 OVC043 08/02 A2945 RMK AO2 T00830020
Loading
Personal Weather Stations






























Interactive Weather Map New forecast layout! Learn more

10-Day Weather Forecast

Advertisements
Track Severe Weather on mobile